Time;durP1;ratioP1;P1;durP2;ratioP2;P2;SDS_P1;SDS_P2;PMS_P1;PMS_P2;Temp;Humidity;BMP_temperature;BMP_pressure;BME280_temperature;BME280_humidity;BME280_pressure;Samples;Min_cycle;Max_cycle;Signal;HPM_P1;HPM_P2
2023/05/10 00:01:20;;;;;;;8.00;7.13;;;;;;;;;;5114157;28;20450;-75
2023/05/10 00:03:47;;;;;;;10.13;6.93;;;;;;;;;;5114264;28;20962;-75
2023/05/10 00:06:14;;;;;;;10.80;6.50;;;;;;;;;;5114171;28;20449;-75
2023/05/10 00:08:42;;;;;;;11.77;6.90;;;;;;;;;;5114120;28;20915;-75
2023/05/10 00:11:09;;;;;;;10.07;6.97;;;;;;;;;;5113812;28;20451;-75
2023/05/10 00:13:36;;;;;;;9.13;7.80;;;;;;;;;;5113226;28;20852;-75
2023/05/10 00:16:03;;;;;;;9.10;7.60;;;;;;;;;;5113748;28;20441;-75
2023/05/10 00:18:32;;;;;;;10.73;7.70;;;;;;;;;;5114056;28;20465;-74
2023/05/10 00:20:59;;;;;;;9.77;7.37;;;;;;;;;;5113681;28;20481;-75
2023/05/10 00:23:26;;;;;;;6.90;6.17;;;;;;;;;;5118254;28;20469;-74
2023/05/10 00:25:53;;;;;;;10.70;7.80;;;;;;;;;;5119571;27;20433;-74
2023/05/10 00:28:20;;;;;;;12.67;7.57;;;;;;;;;;5120413;28;20450;-74
2023/05/10 00:30:47;;;;;;;8.50;6.03;;;;;;;;;;5119846;28;20961;-74
2023/05/10 00:33:14;;;;;;;9.77;7.67;;;;;;;;;;5119778;28;20477;-74
2023/05/10 00:35:43;;;;;;;8.90;6.30;;;;;;;;;;5120378;28;20449;-74
2023/05/10 00:38:11;;;;;;;13.80;7.27;;;;;;;;;;5118561;28;20998;-74
2023/05/10 00:40:38;;;;;;;7.20;6.13;;;;;;;;;;5118420;28;20461;-74
2023/05/10 00:43:06;;;;;;;8.73;7.60;;;;;;;;;;5118949;28;20911;-74
2023/05/10 00:45:34;;;;;;;8.20;6.63;;;;;;;;;;5120092;28;20540;-74
2023/05/10 00:48:02;;;;;;;10.50;8.33;;;;;;;;;;5118909;28;20475;-74
2023/05/10 00:50:30;;;;;;;9.70;7.20;;;;;;;;;;5117449;28;20449;-74
2023/05/10 00:52:59;;;;;;;8.23;6.40;;;;;;;;;;5117841;27;20851;-74
2023/05/10 00:55:26;;;;;;;13.13;8.13;;;;;;;;;;5117946;28;20449;-74
2023/05/10 00:57:54;;;;;;;9.00;7.10;;;;;;;;;;5118182;28;20486;-74
2023/05/10 01:00:21;;;;;;;9.67;8.33;;;;;;;;;;5118060;28;20452;-74
2023/05/10 01:02:49;;;;;;;13.37;8.20;;;;;;;;;;5118955;28;20534;-74
2023/05/10 01:05:16;;;;;;;11.03;8.77;;;;;;;;;;5118484;28;20454;-74
2023/05/10 01:07:43;;;;;;;10.33;7.63;;;;;;;;;;5118905;28;20810;-74
2023/05/10 01:10:12;;;;;;;10.50;8.60;;;;;;;;;;5118680;28;20446;-74
2023/05/10 01:12:40;;;;;;;8.13;7.10;;;;;;;;;;5118337;28;20473;-74
2023/05/10 01:15:09;;;;;;;9.63;7.47;;;;;;;;;;5117866;28;20484;-74
2023/05/10 01:17:37;;;;;;;8.07;7.27;;;;;;;;;;5117718;28;20454;-74
2023/05/10 01:20:04;;;;;;;8.50;6.97;;;;;;;;;;5118156;28;20930;-74
2023/05/10 01:22:44;;;;;;;7.70;6.90;;;;;;;;;;5118242;28;20554;-74
2023/05/10 01:25:35;;;;;;;14.03;7.20;;;;;;;;;;5117864;28;20442;-74
2023/05/10 01:28:15;;;;;;;8.07;7.10;;;;;;;;;;5042361;28;20453;-74
2023/05/10 01:31:11;;;;;;;13.30;8.00;;;;;;;;;;5117525;28;20457;-74
2023/05/10 01:33:43;;;;;;;8.50;7.60;;;;;;;;;;5033987;28;20486;-74
2023/05/10 01:36:16;;;;;;;14.60;7.77;;;;;;;;;;5100203;28;20946;-74
2023/05/10 01:38:50;;;;;;;11.73;7.23;;;;;;;;;;5116670;28;20469;-74
2023/05/10 01:41:20;;;;;;;7.90;5.40;;;;;;;;;;5116770;28;20525;-74
2023/05/10 01:43:52;;;;;;;6.20;5.10;;;;;;;;;;5117231;27;20468;-74
2023/05/10 01:46:22;;;;;;;6.70;4.70;;;;;;;;;;5116164;28;20441;-74
2023/05/10 01:48:53;;;;;;;5.67;5.17;;;;;;;;;;5116668;28;20441;-74
2023/05/10 01:51:23;;;;;;;5.77;4.97;;;;;;;;;;5116769;28;20533;-74
2023/05/10 01:53:51;;;;;;;3.50;3.20;;;;;;;;;;5116527;28;20962;-74
2023/05/10 01:56:21;;;;;;;3.40;3.10;;;;;;;;;;5115525;28;20454;-74
2023/05/10 01:58:50;;;;;;;5.40;4.03;;;;;;;;;;5116413;28;20493;-74
2023/05/10 02:01:18;;;;;;;3.60;3.30;;;;;;;;;;5116318;28;20445;-74
2023/05/10 02:03:45;;;;;;;3.27;2.13;;;;;;;;;;5115600;28;20831;-74
2023/05/10 02:06:14;;;;;;;2.87;2.57;;;;;;;;;;5114819;28;20453;-74
2023/05/10 02:08:42;;;;;;;2.57;1.97;;;;;;;;;;5115195;28;20447;-74
2023/05/10 02:11:12;;;;;;;2.63;2.00;;;;;;;;;;5115350;28;20441;-74
2023/05/10 02:13:40;;;;;;;3.03;2.60;;;;;;;;;;5115323;28;20478;-74
2023/05/10 02:16:08;;;;;;;2.73;2.20;;;;;;;;;;5115551;28;20450;-74
2023/05/10 02:18:37;;;;;;;4.20;3.77;;;;;;;;;;5115478;28;20989;-74
2023/05/10 02:21:04;;;;;;;4.53;3.70;;;;;;;;;;5115095;28;20450;-74
2023/05/10 02:23:33;;;;;;;4.13;2.77;;;;;;;;;;5114786;28;20470;-74
2023/05/10 02:26:01;;;;;;;2.60;1.97;;;;;;;;;;5114403;28;20436;-74
2023/05/10 02:28:29;;;;;;;2.80;2.43;;;;;;;;;;5114476;28;20445;-74
2023/05/10 02:30:56;;;;;;;2.30;1.70;;;;;;;;;;5114994;28;20456;-74
2023/05/10 02:33:24;;;;;;;2.60;2.00;;;;;;;;;;5115391;27;20469;-74
2023/05/10 02:35:52;;;;;;;4.30;3.13;;;;;;;;;;5115006;28;20446;-74
2023/05/10 02:38:20;;;;;;;3.50;2.90;;;;;;;;;;5114886;28;20481;-74
2023/05/10 02:40:49;;;;;;;2.60;2.30;;;;;;;;;;5115915;28;20449;-74
2023/05/10 02:43:17;;;;;;;3.93;1.97;;;;;;;;;;5116035;28;20465;-74
2023/05/10 02:45:44;;;;;;;2.83;2.53;;;;;;;;;;5114787;28;20456;-74
2023/05/10 02:48:12;;;;;;;4.50;2.50;;;;;;;;;;5115972;28;20817;-74
2023/05/10 02:50:40;;;;;;;3.23;2.23;;;;;;;;;;5116787;28;20453;-74
2023/05/10 02:53:11;;;;;;;5.10;3.13;;;;;;;;;;5117017;28;20553;-74
2023/05/10 02:55:40;;;;;;;2.90;2.60;;;;;;;;;;5117782;28;20446;-74
2023/05/10 02:58:08;;;;;;;3.27;2.23;;;;;;;;;;5116742;28;20521;-74
2023/05/10 03:00:36;;;;;;;2.20;1.93;;;;;;;;;;5117269;28;20817;-74
2023/05/10 03:03:03;;;;;;;2.90;2.03;;;;;;;;;;5115610;28;20473;-74
2023/05/10 03:05:30;;;;;;;2.03;1.83;;;;;;;;;;5114541;28;20460;-74
2023/05/10 03:07:57;;;;;;;1.80;1.60;;;;;;;;;;5114308;28;20453;-74
2023/05/10 03:10:28;;;;;;;2.13;1.70;;;;;;;;;;5115006;28;20426;-74
2023/05/10 03:13:01;;;;;;;2.47;1.90;;;;;;;;;;5114864;28;20831;-74
2023/05/10 03:15:36;;;;;;;2.17;1.93;;;;;;;;;;5113751;28;20426;-74
2023/05/10 03:18:05;;;;;;;2.70;1.93;;;;;;;;;;5114091;28;20430;-74
2023/05/10 03:20:35;;;;;;;2.53;2.30;;;;;;;;;;5114540;28;20481;-73
2023/05/10 03:23:05;;;;;;;2.43;2.23;;;;;;;;;;5114821;28;20484;-73
2023/05/10 03:25:33;;;;;;;7.67;2.17;;;;;;;;;;5116552;28;20813;-73
2023/05/10 03:28:02;;;;;;;2.73;2.30;;;;;;;;;;5116549;28;20447;-73
2023/05/10 03:30:29;;;;;;;5.10;4.00;;;;;;;;;;5115268;28;20815;-74
2023/05/10 03:32:58;;;;;;;3.40;2.63;;;;;;;;;;5113855;28;20473;-74
2023/05/10 03:35:25;;;;;;;2.27;1.87;;;;;;;;;;5113852;28;20445;-74
2023/05/10 03:37:52;;;;;;;2.30;2.10;;;;;;;;;;5113620;28;20450;-73
2023/05/10 03:40:19;;;;;;;3.60;2.53;;;;;;;;;;5113704;28;20951;-73
2023/05/10 03:42:46;;;;;;;6.47;5.10;;;;;;;;;;5113558;28;20886;-74
2023/05/10 03:45:14;;;;;;;12.87;8.00;;;;;;;;;;5113383;28;20449;-74
2023/05/10 03:47:41;;;;;;;4.03;2.97;;;;;;;;;;5113609;28;20915;-74
2023/05/10 03:50:10;;;;;;;2.90;2.60;;;;;;;;;;5113566;28;20771;-73
2023/05/10 03:52:38;;;;;;;3.03;2.73;;;;;;;;;;5113204;28;20465;-74
2023/05/10 03:55:06;;;;;;;2.87;2.60;;;;;;;;;;5113624;28;20495;-74
2023/05/10 03:57:33;;;;;;;2.87;2.57;;;;;;;;;;5116036;28;20934;-74
2023/05/10 04:00:01;;;;;;;7.90;6.27;;;;;;;;;;5117637;28;20476;-74
2023/05/10 04:02:28;;;;;;;4.40;3.13;;;;;;;;;;5117698;28;20473;-73
2023/05/10 04:04:55;;;;;;;2.73;2.40;;;;;;;;;;5117251;28;20454;-73
2023/05/10 04:07:24;;;;;;;4.63;2.53;;;;;;;;;;5117131;28;20457;-74
2023/05/10 04:09:51;;;;;;;2.73;2.13;;;;;;;;;;5117676;28;20450;-74
2023/05/10 04:12:18;;;;;;;3.00;2.37;;;;;;;;;;5119322;27;20971;-74
2023/05/10 04:14:45;;;;;;;3.50;2.20;;;;;;;;;;5119428;28;20473;-74
2023/05/10 04:17:12;;;;;;;2.23;2.03;;;;;;;;;;5119088;28;20945;-74
2023/05/10 04:19:39;;;;;;;2.33;2.10;;;;;;;;;;5117825;28;20476;-74
2023/05/10 04:22:06;;;;;;;5.40;4.00;;;;;;;;;;5117571;28;20815;-73
2023/05/10 04:24:35;;;;;;;4.63;4.17;;;;;;;;;;5117236;28;20450;-74
2023/05/10 04:27:02;;;;;;;2.60;2.40;;;;;;;;;;5116938;28;20450;-74
2023/05/10 04:29:29;;;;;;;7.40;2.20;;;;;;;;;;5117553;28;20445;-74
2023/05/10 04:31:57;;;;;;;2.30;1.90;;;;;;;;;;5118373;27;20450;-73
2023/05/10 04:34:25;;;;;;;2.33;1.97;;;;;;;;;;5119267;28;20449;-73
2023/05/10 04:36:52;;;;;;;2.30;1.80;;;;;;;;;;5118557;28;20449;-73
2023/05/10 04:39:19;;;;;;;2.50;2.30;;;;;;;;;;5118523;28;20466;-73
2023/05/10 04:41:48;;;;;;;2.90;1.93;;;;;;;;;;5118061;28;20452;-74
2023/05/10 04:44:15;;;;;;;2.80;2.43;;;;;;;;;;5117697;28;20979;-72
2023/05/10 04:46:42;;;;;;;1.80;1.40;;;;;;;;;;5117297;28;21008;-74
2023/05/10 04:49:09;;;;;;;2.37;2.03;;;;;;;;;;5117309;28;20434;-73
2023/05/10 04:51:36;;;;;;;4.07;2.00;;;;;;;;;;5117130;27;20445;-74
2023/05/10 04:54:04;;;;;;;2.33;2.13;;;;;;;;;;5116827;28;20469;-73
2023/05/10 04:56:31;;;;;;;2.90;1.90;;;;;;;;;;5117025;28;20926;-74
2023/05/10 04:58:59;;;;;;;5.60;2.67;;;;;;;;;;5116689;28;20474;-73
2023/05/10 05:01:26;;;;;;;2.77;1.97;;;;;;;;;;5116543;28;20441;-74
2023/05/10 05:03:54;;;;;;;2.13;1.70;;;;;;;;;;5117838;28;20476;-74
2023/05/10 05:06:21;;;;;;;2.40;1.90;;;;;;;;;;5117763;28;20457;-74
2023/05/10 05:08:49;;;;;;;1.90;1.60;;;;;;;;;;5117271;28;20480;-74
2023/05/10 05:11:16;;;;;;;2.10;1.70;;;;;;;;;;5118276;28;20458;-74
2023/05/10 05:13:43;;;;;;;2.90;1.80;;;;;;;;;;5119230;28;20481;-73
2023/05/10 05:16:11;;;;;;;2.33;1.50;;;;;;;;;;5118565;27;20434;-73
2023/05/10 05:18:39;;;;;;;2.47;1.87;;;;;;;;;;5118151;28;20449;-74
2023/05/10 05:21:14;;;;;;;2.03;1.70;;;;;;;;;;5117571;28;20481;-74
2023/05/10 05:23:42;;;;;;;1.97;1.77;;;;;;;;;;5117279;28;20534;-74
2023/05/10 05:26:09;;;;;;;2.30;1.73;;;;;;;;;;5118176;28;20917;-74
2023/05/10 05:28:37;;;;;;;1.77;1.43;;;;;;;;;;5116943;28;20442;-74
2023/05/10 05:31:05;;;;;;;2.93;2.50;;;;;;;;;;5117136;28;20469;-74
2023/05/10 05:33:33;;;;;;;3.90;2.43;;;;;;;;;;5117297;28;20508;-74
2023/05/10 05:36:04;;;;;;;2.17;1.77;;;;;;;;;;5118088;28;20457;-74
2023/05/10 05:38:31;;;;;;;2.30;1.80;;;;;;;;;;5116346;28;20446;-74
2023/05/10 05:40:58;;;;;;;2.83;1.67;;;;;;;;;;5117267;28;20488;-74
2023/05/10 05:43:26;;;;;;;2.10;1.60;;;;;;;;;;5116336;28;20465;-73
2023/05/10 05:45:54;;;;;;;1.77;1.60;;;;;;;;;;5117191;28;20450;-74
2023/05/10 05:48:21;;;;;;;2.30;1.73;;;;;;;;;;5117428;28;20449;-73
2023/05/10 05:50:49;;;;;;;2.27;1.47;;;;;;;;;;5116763;28;20452;-74
2023/05/10 05:53:17;;;;;;;3.10;2.20;;;;;;;;;;5117962;28;20474;-74
2023/05/10 05:55:52;;;;;;;2.60;1.30;;;;;;;;;;5117402;28;20442;-73
2023/05/10 05:58:19;;;;;;;2.63;1.60;;;;;;;;;;5117483;28;20877;-74
2023/05/10 06:00:47;;;;;;;2.10;1.30;;;;;;;;;;5117990;28;20485;-74
2023/05/10 06:03:14;;;;;;;1.97;1.50;;;;;;;;;;5118579;28;21009;-73
2023/05/10 06:05:41;;;;;;;2.33;1.40;;;;;;;;;;5118221;28;20437;-73
2023/05/10 06:08:09;;;;;;;2.30;2.10;;;;;;;;;;5118975;28;20811;-73
2023/05/10 06:10:36;;;;;;;1.70;1.40;;;;;;;;;;5119523;28;20476;-73
2023/05/10 06:13:04;;;;;;;2.07;1.20;;;;;;;;;;5119384;28;20470;-74
2023/05/10 06:15:32;;;;;;;2.57;1.20;;;;;;;;;;5120121;28;20461;-73
2023/05/10 06:17:59;;;;;;;2.20;1.70;;;;;;;;;;5119806;28;20894;-74
2023/05/10 06:20:26;;;;;;;2.17;1.50;;;;;;;;;;5115544;28;20493;-73
2023/05/10 06:22:53;;;;;;;2.30;1.87;;;;;;;;;;5117327;28;20465;-73
2023/05/10 06:25:22;;;;;;;3.80;2.13;;;;;;;;;;5117547;28;20887;-74
2023/05/10 06:27:49;;;;;;;3.63;1.80;;;;;;;;;;5117579;27;20978;-73
2023/05/10 06:30:16;;;;;;;2.63;1.70;;;;;;;;;;5116034;28;20437;-73
2023/05/10 06:32:44;;;;;;;5.30;1.30;;;;;;;;;;5115962;28;20470;-73
2023/05/10 06:35:12;;;;;;;3.97;1.53;;;;;;;;;;5116004;28;20828;-73
2023/05/10 06:37:39;;;;;;;2.30;1.93;;;;;;;;;;5117795;28;20449;-73
2023/05/10 06:40:07;;;;;;;8.20;1.17;;;;;;;;;;5117143;28;20486;-74
2023/05/10 06:42:35;;;;;;;1.80;1.27;;;;;;;;;;5116636;28;20966;-73
2023/05/10 06:45:03;;;;;;;1.87;1.20;;;;;;;;;;5116863;28;20449;-73
2023/05/10 06:47:30;;;;;;;2.27;1.20;;;;;;;;;;5116844;28;20441;-73
2023/05/10 06:49:57;;;;;;;1.93;1.30;;;;;;;;;;5116005;28;20438;-73
2023/05/10 06:52:24;;;;;;;1.67;1.17;;;;;;;;;;5116612;28;20479;-73
2023/05/10 06:54:51;;;;;;;1.53;1.07;;;;;;;;;;5117997;28;20456;-73
2023/05/10 06:57:19;;;;;;;1.50;1.17;;;;;;;;;;5118065;28;20560;-73
2023/05/10 06:59:47;;;;;;;1.80;1.17;;;;;;;;;;5117345;28;20485;-73
2023/05/10 07:02:15;;;;;;;1.50;1.10;;;;;;;;;;5116251;28;20457;-73
2023/05/10 07:04:42;;;;;;;1.53;1.20;;;;;;;;;;5116669;28;20445;-73
2023/05/10 07:07:09;;;;;;;2.37;1.33;;;;;;;;;;5115444;28;20457;-73
2023/05/10 07:09:37;;;;;;;2.40;1.20;;;;;;;;;;5116160;28;20465;-73
2023/05/10 07:12:04;;;;;;;1.70;1.30;;;;;;;;;;5116126;28;20442;-73
2023/05/10 07:14:31;;;;;;;1.70;1.30;;;;;;;;;;5115639;28;20461;-73
2023/05/10 07:17:00;;;;;;;1.93;1.20;;;;;;;;;;5115828;28;20452;-73
2023/05/10 07:19:27;;;;;;;2.37;1.30;;;;;;;;;;5115505;28;20450;-73
2023/05/10 07:21:54;;;;;;;2.80;1.20;;;;;;;;;;5115033;28;20449;-73
2023/05/10 07:24:21;;;;;;;1.30;1.07;;;;;;;;;;5115132;28;20441;-73
2023/05/10 07:26:48;;;;;;;1.80;1.20;;;;;;;;;;5115023;28;20441;-73
2023/05/10 07:29:15;;;;;;;2.40;1.10;;;;;;;;;;5115216;28;20438;-73
2023/05/10 07:31:43;;;;;;;2.30;1.47;;;;;;;;;;5118671;28;20476;-73
2023/05/10 07:34:11;;;;;;;2.23;1.20;;;;;;;;;;5118913;28;20481;-72
2023/05/10 07:36:38;;;;;;;2.27;1.40;;;;;;;;;;5119146;28;20556;-73
2023/05/10 07:39:06;;;;;;;2.60;1.40;;;;;;;;;;5119683;28;20449;-72
2023/05/10 07:41:33;;;;;;;4.33;1.60;;;;;;;;;;5119358;28;20489;-73
2023/05/10 07:44:00;;;;;;;1.70;1.60;;;;;;;;;;5119811;28;20499;-72
2023/05/10 07:46:28;;;;;;;1.97;1.50;;;;;;;;;;5119086;28;20483;-72
2023/05/10 07:48:55;;;;;;;2.33;1.80;;;;;;;;;;5119256;28;20541;-72
2023/05/10 07:51:24;;;;;;;3.37;1.80;;;;;;;;;;5118722;28;20521;-72
2023/05/10 07:53:51;;;;;;;2.10;1.90;;;;;;;;;;5118608;28;20465;-72
2023/05/10 07:56:22;;;;;;;6.30;3.60;;;;;;;;;;5118707;28;20493;-73
2023/05/10 07:58:49;;;;;;;4.13;3.00;;;;;;;;;;5119016;28;20453;-73
2023/05/10 08:01:16;;;;;;;2.87;1.47;;;;;;;;;;5117172;28;20489;-72
2023/05/10 08:03:43;;;;;;;3.00;2.00;;;;;;;;;;5118221;28;20462;-73
2023/05/10 08:06:10;;;;;;;2.47;1.63;;;;;;;;;;5118600;28;20440;-73
2023/05/10 08:08:39;;;;;;;1.90;1.70;;;;;;;;;;5118696;28;20522;-73
2023/05/10 08:11:06;;;;;;;4.13;2.73;;;;;;;;;;5118475;28;20442;-73
2023/05/10 08:13:33;;;;;;;3.50;3.03;;;;;;;;;;5117564;28;20481;-73
2023/05/10 08:16:01;;;;;;;2.83;2.53;;;;;;;;;;5118220;28;20457;-73
2023/05/10 08:18:28;;;;;;;2.00;1.80;;;;;;;;;;5118294;28;20449;-73
2023/05/10 08:20:55;;;;;;;2.27;1.77;;;;;;;;;;5117420;28;20486;-72
2023/05/10 08:23:22;;;;;;;2.00;1.80;;;;;;;;;;5117404;28;20505;-73
2023/05/10 08:25:51;;;;;;;3.40;2.10;;;;;;;;;;5117966;28;20801;-73
2023/05/10 08:28:18;;;;;;;1.80;1.63;;;;;;;;;;5117273;28;20450;-73
2023/05/10 08:30:45;;;;;;;2.03;1.77;;;;;;;;;;5116930;28;20456;-73
2023/05/10 08:33:12;;;;;;;4.63;3.70;;;;;;;;;;5116941;28;20469;-73
2023/05/10 08:35:39;;;;;;;2.70;2.50;;;;;;;;;;5117304;28;20785;-73
2023/05/10 08:38:07;;;;;;;2.60;2.20;;;;;;;;;;5117916;28;20445;-73
2023/05/10 08:40:35;;;;;;;2.40;2.13;;;;;;;;;;5116830;28;20480;-73
2023/05/10 08:43:06;;;;;;;2.70;2.47;;;;;;;;;;5117009;28;20516;-73
2023/05/10 08:45:34;;;;;;;3.13;2.60;;;;;;;;;;5117521;28;20434;-73
2023/05/10 08:48:02;;;;;;;3.33;3.00;;;;;;;;;;5116971;28;20457;-72
2023/05/10 08:50:31;;;;;;;2.80;2.60;;;;;;;;;;5117572;28;20445;-73
2023/05/10 08:53:00;;;;;;;3.50;3.20;;;;;;;;;;5117362;28;20470;-73
2023/05/10 08:55:28;;;;;;;3.63;3.33;;;;;;;;;;5117461;28;20445;-73
2023/05/10 08:57:56;;;;;;;4.27;3.87;;;;;;;;;;5119018;28;20422;-73
2023/05/10 09:00:24;;;;;;;3.73;3.43;;;;;;;;;;5119516;28;20825;-73
2023/05/10 09:02:52;;;;;;;3.33;3.07;;;;;;;;;;5119237;28;20993;-73
2023/05/10 09:05:19;;;;;;;3.80;3.50;;;;;;;;;;5119891;28;20831;-73
2023/05/10 09:07:46;;;;;;;3.70;3.33;;;;;;;;;;5119539;28;20461;-73
2023/05/10 09:10:14;;;;;;;3.90;3.50;;;;;;;;;;5120236;28;20454;-73
2023/05/10 09:12:43;;;;;;;3.40;3.10;;;;;;;;;;5119861;28;20480;-73
2023/05/10 09:15:11;;;;;;;5.47;4.17;;;;;;;;;;5118212;28;20465;-73
2023/05/10 09:17:40;;;;;;;4.13;3.73;;;;;;;;;;5118877;28;20950;-73
2023/05/10 09:20:08;;;;;;;4.50;3.97;;;;;;;;;;5119753;28;20434;-73
2023/05/10 09:22:35;;;;;;;4.93;4.30;;;;;;;;;;5119657;28;20985;-73
2023/05/10 09:25:06;;;;;;;4.03;3.63;;;;;;;;;;5119437;28;20456;-74
2023/05/10 09:27:33;;;;;;;4.50;4.10;;;;;;;;;;5119097;28;20438;-73
2023/05/10 09:30:00;;;;;;;4.03;3.37;;;;;;;;;;5119044;28;20434;-73
2023/05/10 09:32:37;;;;;;;5.97;5.23;;;;;;;;;;5118644;28;20818;-73
2023/05/10 09:35:09;;;;;;;4.37;3.97;;;;;;;;;;5119215;28;20895;-73
2023/05/10 09:37:36;;;;;;;2.90;2.60;;;;;;;;;;5119233;28;20441;-73
2023/05/10 09:40:06;;;;;;;2.77;2.53;;;;;;;;;;5118768;28;20438;-73
2023/05/10 09:42:33;;;;;;;2.83;2.63;;;;;;;;;;5118130;28;20500;-73
2023/05/10 09:45:01;;;;;;;3.17;2.87;;;;;;;;;;5120443;28;20456;-73
2023/05/10 09:47:30;;;;;;;3.00;2.40;;;;;;;;;;5120186;28;20453;-74
2023/05/10 09:50:02;;;;;;;3.50;2.27;;;;;;;;;;5119623;28;20544;-73
2023/05/10 09:52:31;;;;;;;2.80;2.60;;;;;;;;;;5120075;28;20497;-73
2023/05/10 09:54:59;;;;;;;3.37;3.07;;;;;;;;;;5117515;28;20449;-73
2023/05/10 09:57:26;;;;;;;3.20;2.90;;;;;;;;;;5118200;28;20446;-73
2023/05/10 09:59:55;;;;;;;3.13;2.83;;;;;;;;;;5119123;28;20454;-73
2023/05/10 10:02:22;;;;;;;3.40;3.03;;;;;;;;;;5118386;28;20572;-73
2023/05/10 10:04:52;;;;;;;3.27;2.97;;;;;;;;;;5117147;28;20458;-73
2023/05/10 10:07:24;;;;;;;2.83;2.33;;;;;;;;;;5116244;28;20834;-73
2023/05/10 10:09:52;;;;;;;3.07;2.87;;;;;;;;;;5116331;28;20806;-73
2023/05/10 10:12:20;;;;;;;4.57;3.50;;;;;;;;;;5116732;28;20465;-73
2023/05/10 10:14:49;;;;;;;6.43;5.63;;;;;;;;;;5117072;27;20469;-73
2023/05/10 10:17:16;;;;;;;3.63;3.23;;;;;;;;;;5116812;28;20460;-73
2023/05/10 10:19:43;;;;;;;4.97;3.60;;;;;;;;;;5116067;28;20946;-73
2023/05/10 10:22:12;;;;;;;8.93;3.37;;;;;;;;;;5115573;28;20489;-73
2023/05/10 10:24:40;;;;;;;3.53;3.23;;;;;;;;;;5116447;28;20441;-73
2023/05/10 10:27:16;;;;;;;4.10;3.70;;;;;;;;;;5115810;28;20491;-73
2023/05/10 10:29:49;;;;;;;3.70;3.40;;;;;;;;;;5116331;28;20433;-73
2023/05/10 10:32:22;;;;;;;3.83;3.53;;;;;;;;;;5116081;28;20470;-73
2023/05/10 10:34:49;;;;;;;3.60;3.30;;;;;;;;;;5116017;28;20442;-73
2023/05/10 10:37:16;;;;;;;6.53;4.20;;;;;;;;;;5115278;28;20544;-73
2023/05/10 10:39:43;;;;;;;3.77;3.43;;;;;;;;;;5115121;28;20536;-73
2023/05/10 10:42:12;;;;;;;3.47;3.17;;;;;;;;;;5114919;28;20488;-73
2023/05/10 10:44:41;;;;;;;3.33;3.03;;;;;;;;;;5115078;28;20456;-73
2023/05/10 10:47:11;;;;;;;3.63;3.33;;;;;;;;;;5114721;28;20473;-73
2023/05/10 10:49:44;;;;;;;3.53;3.23;;;;;;;;;;5115013;28;20493;-73
2023/05/10 10:52:15;;;;;;;3.63;3.10;;;;;;;;;;5114716;28;20434;-73
2023/05/10 10:54:42;;;;;;;8.03;3.17;;;;;;;;;;5114461;28;20453;-73
2023/05/10 10:57:14;;;;;;;3.27;2.70;;;;;;;;;;5115568;28;21082;-73
2023/05/10 10:59:45;;;;;;;3.10;2.80;;;;;;;;;;5115969;28;20548;-73
2023/05/10 11:02:32;;;;;;;9.63;2.77;;;;;;;;;;5115648;28;20546;-73
2023/05/10 11:04:59;;;;;;;2.90;2.70;;;;;;;;;;5115280;28;20456;-73
2023/05/10 11:07:26;;;;;;;3.50;3.13;;;;;;;;;;5115781;28;20462;-73
2023/05/10 11:09:53;;;;;;;2.97;2.70;;;;;;;;;;5116115;28;20457;-72
2023/05/10 11:12:22;;;;;;;4.20;3.80;;;;;;;;;;5116857;28;20465;-73
2023/05/10 11:14:51;;;;;;;4.73;4.00;;;;;;;;;;5114433;28;20464;-73
2023/05/10 11:17:26;;;;;;;2.53;2.33;;;;;;;;;;5114395;28;20483;-73
2023/05/10 11:20:09;;;;;;;5.40;4.10;;;;;;;;;;5114758;28;20498;-73
2023/05/10 11:22:51;;;;;;;5.43;2.70;;;;;;;;;;5114006;28;20489;-73
2023/05/10 11:25:18;;;;;;;31.47;17.57;;;;;;;;;;5113906;28;20433;-73
2023/05/10 11:27:49;;;;;;;10.50;8.50;;;;;;;;;;5114559;28;20456;-73
2023/05/10 11:30:16;;;;;;;7.63;4.60;;;;;;;;;;5114391;28;20437;-73
2023/05/10 11:32:43;;;;;;;3.40;2.97;;;;;;;;;;5114215;28;20478;-73
2023/05/10 11:35:11;;;;;;;5.30;3.80;;;;;;;;;;5114222;28;20821;-73
2023/05/10 11:37:41;;;;;;;4.83;3.10;;;;;;;;;;5114005;28;20462;-73
2023/05/10 11:40:09;;;;;;;2.60;2.40;;;;;;;;;;5114060;28;20530;-73
2023/05/10 11:42:37;;;;;;;3.00;2.80;;;;;;;;;;5113722;28;20489;-74
2023/05/10 11:45:06;;;;;;;3.33;3.03;;;;;;;;;;5113653;28;20934;-73
2023/05/10 11:47:35;;;;;;;3.00;2.37;;;;;;;;;;5113866;28;20818;-73
2023/05/10 11:50:02;;;;;;;2.40;2.20;;;;;;;;;;5114172;28;20442;-73
2023/05/10 11:52:30;;;;;;;3.00;2.60;;;;;;;;;;5114715;28;20472;-73
2023/05/10 11:54:57;;;;;;;4.23;3.60;;;;;;;;;;5113967;28;21032;-74
2023/05/10 11:57:27;;;;;;;3.83;3.43;;;;;;;;;;5110809;28;20459;-74
2023/05/10 11:59:55;;;;;;;3.07;2.80;;;;;;;;;;5093839;28;20434;-74
2023/05/10 12:02:24;;;;;;;4.70;3.57;;;;;;;;;;5093881;28;20540;-73
2023/05/10 12:04:51;;;;;;;2.60;2.40;;;;;;;;;;5094298;28;20427;-73
2023/05/10 12:07:18;;;;;;;2.70;2.50;;;;;;;;;;5095117;28;20948;-74
2023/05/10 12:09:46;;;;;;;3.40;3.10;;;;;;;;;;5094662;28;20439;-73
2023/05/10 12:12:17;;;;;;;4.30;3.90;;;;;;;;;;5094720;28;20445;-73
2023/05/10 12:14:44;;;;;;;5.07;4.60;;;;;;;;;;5095270;28;20212;-73
2023/05/10 12:17:13;;;;;;;3.60;3.30;;;;;;;;;;5095348;28;20911;-73
2023/05/10 12:19:41;;;;;;;3.30;3.00;;;;;;;;;;5099414;28;20500;-73
2023/05/10 12:22:10;;;;;;;4.70;4.30;;;;;;;;;;5099301;28;20504;-73
2023/05/10 12:24:37;;;;;;;5.33;4.83;;;;;;;;;;5098839;28;20446;-73
2023/05/10 12:27:07;;;;;;;6.40;5.07;;;;;;;;;;5099062;28;20430;-73
2023/05/10 12:29:34;;;;;;;5.93;5.33;;;;;;;;;;5098662;28;20454;-73
2023/05/10 12:32:02;;;;;;;6.23;4.97;;;;;;;;;;5098431;28;20981;-73
2023/05/10 12:34:32;;;;;;;4.03;3.60;;;;;;;;;;5098367;28;20461;-73
2023/05/10 12:36:59;;;;;;;6.53;5.43;;;;;;;;;;5100741;28;20603;-73
2023/05/10 12:39:38;;;;;;;10.93;7.70;;;;;;;;;;5099929;28;20485;-72
2023/05/10 12:42:06;;;;;;;21.93;12.70;;;;;;;;;;5100028;28;20540;-72
2023/05/10 12:44:33;;;;;;;6.50;5.63;;;;;;;;;;5098978;28;20538;-72
2023/05/10 12:47:00;;;;;;;5.23;4.73;;;;;;;;;;5099505;28;20457;-72
2023/05/10 12:49:27;;;;;;;3.60;3.10;;;;;;;;;;5099629;28;20923;-73
2023/05/10 12:51:54;;;;;;;5.00;4.50;;;;;;;;;;5099732;28;20457;-73
2023/05/10 12:54:21;;;;;;;4.60;4.20;;;;;;;;;;5099732;28;20518;-73
2023/05/10 12:56:50;;;;;;;5.97;4.63;;;;;;;;;;5099443;28;20459;-73
2023/05/10 12:59:17;;;;;;;4.07;3.77;;;;;;;;;;5099500;28;20855;-73
2023/05/10 13:01:44;;;;;;;2.53;2.33;;;;;;;;;;5098711;28;20494;-73
2023/05/10 13:04:11;;;;;;;2.00;1.80;;;;;;;;;;5098277;28;20470;-73
2023/05/10 13:06:38;;;;;;;3.27;2.20;;;;;;;;;;5099530;28;20472;-73
2023/05/10 13:09:05;;;;;;;3.40;3.07;;;;;;;;;;5098602;28;20439;-73
2023/05/10 13:11:33;;;;;;;3.63;3.03;;;;;;;;;;5098299;28;20457;-73
2023/05/10 13:14:03;;;;;;;2.70;2.50;;;;;;;;;;5097638;28;20485;-73
2023/05/10 13:16:30;;;;;;;2.57;2.20;;;;;;;;;;5098606;28;20454;-73
2023/05/10 13:18:57;;;;;;;2.60;2.40;;;;;;;;;;5098071;28;20451;-72
2023/05/10 13:21:25;;;;;;;2.83;2.53;;;;;;;;;;5098005;28;20458;-72
2023/05/10 13:23:52;;;;;;;2.80;2.30;;;;;;;;;;5098410;28;20540;-73
2023/05/10 13:26:19;;;;;;;4.00;3.40;;;;;;;;;;5097507;28;20919;-73
2023/05/10 13:28:48;;;;;;;3.87;3.00;;;;;;;;;;5096638;28;20460;-72
2023/05/10 13:31:17;;;;;;;2.40;2.20;;;;;;;;;;5097088;28;20443;-72
2023/05/10 13:33:44;;;;;;;3.40;2.80;;;;;;;;;;5096330;28;20474;-72
2023/05/10 13:36:11;;;;;;;5.27;3.23;;;;;;;;;;5095905;28;20455;-72
2023/05/10 13:38:38;;;;;;;11.70;8.67;;;;;;;;;;5096124;28;20446;-73
2023/05/10 13:41:05;;;;;;;4.60;3.10;;;;;;;;;;5095540;28;20457;-73
2023/05/10 13:43:32;;;;;;;5.23;3.20;;;;;;;;;;5096436;28;20517;-73
2023/05/10 13:46:00;;;;;;;3.97;3.20;;;;;;;;;;5094045;28;20462;-72
2023/05/10 13:48:28;;;;;;;3.43;3.13;;;;;;;;;;5094740;28;20437;-72
2023/05/10 13:50:55;;;;;;;4.73;2.93;;;;;;;;;;5094759;28;20989;-72
2023/05/10 13:53:23;;;;;;;3.00;2.47;;;;;;;;;;5094577;28;20467;-72
2023/05/10 13:55:50;;;;;;;4.43;2.90;;;;;;;;;;5095063;28;20461;-72
2023/05/10 13:58:17;;;;;;;3.30;2.30;;;;;;;;;;5094641;28;20454;-72
2023/05/10 14:00:44;;;;;;;2.87;2.03;;;;;;;;;;5094664;28;20459;-72
2023/05/10 14:03:12;;;;;;;2.70;2.50;;;;;;;;;;5094414;28;20495;-72
2023/05/10 14:05:40;;;;;;;2.10;1.70;;;;;;;;;;5095307;28;20446;-72
2023/05/10 14:08:09;;;;;;;2.50;2.00;;;;;;;;;;5095137;28;20478;-72
2023/05/10 14:10:36;;;;;;;3.13;2.00;;;;;;;;;;5094217;28;20439;-74
2023/05/10 14:13:04;;;;;;;8.77;6.00;;;;;;;;;;5094487;28;20503;-72
2023/05/10 14:15:31;;;;;;;3.67;2.60;;;;;;;;;;5093759;28;20435;-72
2023/05/10 14:17:58;;;;;;;3.83;2.70;;;;;;;;;;5094525;28;20478;-72
2023/05/10 14:20:25;;;;;;;2.10;1.90;;;;;;;;;;5094276;28;21007;-72
2023/05/10 14:22:53;;;;;;;4.30;2.70;;;;;;;;;;5094366;28;20490;-72
2023/05/10 14:25:21;;;;;;;3.03;2.50;;;;;;;;;;5094312;28;20439;-72
2023/05/10 14:27:48;;;;;;;4.40;3.10;;;;;;;;;;5094240;28;20439;-72
2023/05/10 14:30:15;;;;;;;4.33;3.63;;;;;;;;;;5094011;28;20435;-72
2023/05/10 14:32:42;;;;;;;7.43;4.13;;;;;;;;;;5093714;28;20467;-72
2023/05/10 14:35:10;;;;;;;4.90;4.40;;;;;;;;;;5093887;28;20451;-72
2023/05/10 14:37:37;;;;;;;5.13;4.50;;;;;;;;;;5093720;28;20945;-72
2023/05/10 14:40:07;;;;;;;3.70;3.40;;;;;;;;;;5092991;28;20904;-72
2023/05/10 14:42:34;;;;;;;3.43;3.13;;;;;;;;;;5093325;28;20536;-72
2023/05/10 14:45:02;;;;;;;2.47;2.27;;;;;;;;;;5093958;28;20508;-72
2023/05/10 14:47:29;;;;;;;2.77;2.40;;;;;;;;;;5093474;28;20533;-72
2023/05/10 14:49:56;;;;;;;2.50;2.30;;;;;;;;;;5098904;28;20446;-73